Airport ID:KMHV
Update Time (UTC):10/12/2019 03:30
Wind Speed (Knots):6
Wind Direction (Magnetic):300
Temperature (°C):7
Dew Point (°C):3
Humidity (%):76
Altimeter (inHg):30.16
Density Altitude (Feet):
Visibility (Miles):10+
Clouds (Hundreds of feet):FEW031 FEW037 FEW042
Present Weather:
METAR:METAR KMHV 100320Z AUTO 00000KT 10SM FEW041 07/03 A3015 RMK A01

The data displayed is for advisory purposes only and is not to be used for flight planning or operations.

This page is not automatically refreshed. Reload the page to see current data.